Afton, Texas
Current Conditions -  °F | °C
As of 1:53 AM on Thursday 23 Oct 2014 (Local Time) from KCDS Reporting Station
Moderate Fog Moderate Fog  
Wind Chill: 60°   Ceiling: 200
Heat Index: 60°   Visibility: 0.25mi
Dew Point: 59°   Wind: 5mph
Humidity: 96%   Direction: 210°SSW
Pressure: 30.12"   Gusts: NA
Location:  33.76°N, 100.82°W
Report Text: KCDS 230653Z AUTO 21004KT 1/4SM FG VV002 16/15 A3012 RMK AO2 SLP185 T01560150
Loading
Personal Weather Stations






























Interactive Weather Map
Tropical Storm Tracking
New forecast layout! Learn more

10-Day Weather Forecast

Advertisements
Track Severe Weather on mobile